Time;durP1;ratioP1;P1;durP2;ratioP2;P2;SDS_P1;SDS_P2;PMS_P1;PMS_P2;Temp;Humidity;BMP_temperature;BMP_pressure;BME280_temperature;BME280_humidity;BME280_pressure;Samples;Min_cycle;Max_cycle;Signal;HPM_P1;HPM_P2
2022/09/25 00:00:41;;;;;;;9.70;2.17;;;;;;;11.06;91.08;101456.06;5021422;28;20040;-71
2022/09/25 00:03:07;;;;;;;5.72;2.10;;;;;;;11.04;91.38;101454.41;5021053;28;20408;-71
2022/09/25 00:05:35;;;;;;;9.82;2.60;;;;;;;11.01;91.23;101455.50;5028922;28;20120;-72
2022/09/25 00:08:02;;;;;;;13.40;3.05;;;;;;;11.00;90.80;101464.59;5020348;28;20120;-72
2022/09/25 00:10:28;;;;;;;7.03;2.28;;;;;;;10.98;91.53;101464.72;5008450;28;20359;-72
2022/09/25 00:12:54;;;;;;;5.22;2.00;;;;;;;10.95;91.38;101464.91;5027499;28;20120;-72
2022/09/25 00:15:20;;;;;;;7.07;2.60;;;;;;;10.95;91.82;101473.06;5020732;28;20125;-72
2022/09/25 00:17:45;;;;;;;7.68;2.03;;;;;;;10.93;91.40;101469.59;5029312;28;20037;-72
2022/09/25 00:20:11;;;;;;;14.35;2.38;;;;;;;10.90;92.02;101475.22;5019719;28;20034;-72
2022/09/25 00:22:37;;;;;;;4.30;2.05;;;;;;;10.89;91.60;101476.19;5010190;28;20034;-71
2022/09/25 00:25:02;;;;;;;7.20;2.72;;;;;;;10.87;91.89;101474.56;5017971;28;20104;-72
2022/09/25 00:27:28;;;;;;;5.82;2.22;;;;;;;10.84;91.96;101472.91;5026114;28;20037;-72
2022/09/25 00:29:53;;;;;;;6.95;2.40;;;;;;;10.84;92.10;101474.75;5024703;28;20029;-72
2022/09/25 00:32:19;;;;;;;8.05;2.45;;;;;;;10.82;91.61;101477.56;5044578;28;20033;-72
2022/09/25 00:34:45;;;;;;;3.15;1.77;;;;;;;10.83;91.48;101464.84;5021792;28;20037;-72
2022/09/25 00:37:10;;;;;;;10.25;2.58;;;;;;;10.82;92.04;101473.94;5009920;28;20050;-72
2022/09/25 00:39:35;;;;;;;7.93;2.05;;;;;;;10.80;91.50;101467.75;5011383;28;20440;-72
2022/09/25 00:42:01;;;;;;;5.13;2.30;;;;;;;10.79;91.67;101458.72;5009932;28;20022;-72
2022/09/25 00:44:56;;;;;;;8.40;2.80;;;;;;;10.79;92.39;101469.59;5013603;28;20069;-72
2022/09/25 00:47:23;;;;;;;7.20;2.20;;;;;;;10.76;92.19;101463.47;5009355;28;20469;-72
2022/09/25 00:49:51;;;;;;;4.40;2.08;;;;;;;10.72;91.83;101463.69;5015872;28;20072;-72
2022/09/25 00:52:17;;;;;;;17.63;3.22;;;;;;;10.72;92.22;101473.66;5028278;28;20077;-72
2022/09/25 00:54:52;;;;;;;12.00;2.90;;;;;;;10.71;92.49;101466.47;5027394;28;20037;-72
2022/09/25 00:57:20;;;;;;;5.45;2.20;;;;;;;10.72;92.57;101476.38;5019167;28;20037;-72
2022/09/25 00:59:51;;;;;;;6.57;2.50;;;;;;;10.71;92.41;101478.22;5028015;28;20060;-72
2022/09/25 01:02:23;;;;;;;4.32;2.22;;;;;;;10.70;92.39;101476.50;5042331;28;20057;-72
2022/09/25 01:04:50;;;;;;;8.15;2.30;;;;;;;10.69;92.66;101473.88;5019074;28;20026;-72
2022/09/25 01:07:16;;;;;;;7.05;2.38;;;;;;;10.66;92.19;101468.63;5017345;28;20116;-72
2022/09/25 01:09:43;;;;;;;5.72;2.35;;;;;;;10.65;92.08;101466.88;5045687;28;20042;-72
2022/09/25 01:12:08;;;;;;;5.97;2.90;;;;;;;10.63;92.10;101471.50;5044708;28;20045;-72
2022/09/25 01:14:34;;;;;;;8.30;3.10;;;;;;;10.60;91.89;101475.31;5029845;28;20380;-72
2022/09/25 01:17:12;;;;;;;4.32;2.28;;;;;;;10.57;91.74;101472.78;5012967;28;20053;-72
2022/09/25 01:20:14;;;;;;;5.72;2.65;;;;;;;10.57;91.94;101483.66;5031302;28;20116;-71
2022/09/25 01:23:01;;;;;;;6.38;2.70;;;;;;;10.52;92.20;101479.47;5014536;28;20038;-72
2022/09/25 01:25:42;;;;;;;6.57;2.38;;;;;;;10.46;92.26;101486.19;5031165;28;20041;-72
2022/09/25 01:28:38;;;;;;;8.23;3.15;;;;;;;10.37;92.39;101479.47;5045457;28;20041;-72
2022/09/25 01:31:14;;;;;;;6.53;3.50;;;;;;;10.32;92.57;101481.59;5017895;28;20033;-71
2022/09/25 01:33:47;;;;;;;10.80;2.65;;;;;;;10.30;92.40;101482.66;5028261;28;20041;-72
2022/09/25 01:36:28;;;;;;;5.15;2.03;;;;;;;10.28;92.69;101481.88;5014770;28;20038;-72
2022/09/25 01:39:05;;;;;;;7.60;2.53;;;;;;;10.23;92.64;101488.44;5029792;28;20097;-72
2022/09/25 01:41:44;;;;;;;4.85;2.35;;;;;;;10.20;92.30;101477.72;5018006;28;20098;-72
2022/09/25 01:44:16;;;;;;;8.23;2.55;;;;;;;10.20;92.81;101490.47;5030672;28;20560;-72
2022/09/25 01:46:46;;;;;;;8.38;2.67;;;;;;;10.15;92.46;101482.56;5027596;28;20042;-72
2022/09/25 01:49:18;;;;;;;6.13;2.33;;;;;;;10.11;92.95;101488.28;5017891;28;20536;-72
2022/09/25 01:51:50;;;;;;;8.00;2.80;;;;;;;10.10;92.58;101491.97;5012477;28;20052;-72
2022/09/25 01:54:27;;;;;;;10.30;2.53;;;;;;;10.06;92.22;101484.97;5012230;28;20457;-72
2022/09/25 01:57:04;;;;;;;7.45;2.55;;;;;;;10.02;92.21;101497.00;5024876;28;20480;-72
2022/09/25 01:59:38;;;;;;;5.80;2.25;;;;;;;9.96;92.87;101504.56;5039266;28;20393;-71
2022/09/25 02:02:07;;;;;;;10.20;4.68;;;;;;;9.89;92.79;101500.47;5041516;28;20432;-71
2022/09/25 02:04:38;;;;;;;9.20;2.53;;;;;;;9.85;92.46;101487.16;5026988;28;20069;-72
2022/09/25 02:07:09;;;;;;;13.30;2.40;;;;;;;9.79;92.57;101490.22;5028654;28;20029;-72
2022/09/25 02:09:50;;;;;;;6.68;2.35;;;;;;;9.78;92.93;101492.03;4998567;28;20038;-72
2022/09/25 02:12:33;;;;;;;7.35;2.33;;;;;;;9.74;92.79;101490.47;5026882;28;20536;-71
2022/09/25 02:15:09;;;;;;;9.38;2.17;;;;;;;9.69;93.01;101488.03;5010953;28;20523;-72
2022/09/25 02:20:31;;;;;;;7.60;2.20;;;;;;;9.64;93.30;101483.84;5014728;28;20472;-71
2022/09/25 02:23:26;;;;;;;6.97;2.10;;;;;;;9.61;93.03;101484.03;5014981;28;20033;-72
2022/09/25 02:25:59;;;;;;;4.32;1.80;;;;;;;9.56;92.89;101470.72;5022726;28;20046;-72
2022/09/25 02:28:24;;;;;;;;;;;;;;;9.59;92.46;101481.38;5011782;28;20122;-72
2022/09/25 02:30:53;;;;;;;7.22;2.17;;;;;;;9.46;92.28;101480.34;4994103;28;20013;-71
2022/09/25 02:33:18;;;;;;;7.53;2.28;;;;;;;9.38;92.56;101485.34;5009867;28;20049;-71
2022/09/25 02:35:44;;;;;;;9.32;2.15;;;;;;;9.33;92.19;101488.34;5029815;28;20342;-72
2022/09/25 02:38:09;;;;;;;8.68;2.20;;;;;;;9.28;92.76;101494.97;5025342;28;20477;-71
2022/09/25 02:40:50;;;;;;;7.55;2.28;;;;;;;9.21;93.13;101499.88;5011215;28;20123;-71
2022/09/25 02:43:43;;;;;;;10.13;1.92;;;;;;;9.17;93.74;101495.56;5011076;28;20037;-71
2022/09/25 02:46:29;;;;;;;6.88;1.83;;;;;;;9.11;93.47;101493.22;5022876;28;20112;-71
2022/09/25 02:49:28;;;;;;;7.78;2.33;;;;;;;9.08;93.66;101491.53;5026257;28;20040;-71
2022/09/25 02:52:02;;;;;;;6.15;2.22;;;;;;;9.05;94.01;101488.16;5026282;28;20504;-71
2022/09/25 02:54:35;;;;;;;5.13;1.85;;;;;;;9.01;94.49;101490.16;5017720;28;20042;-71
2022/09/25 02:57:07;;;;;;;6.57;1.83;;;;;;;9.00;94.09;101473.91;5030264;28;20044;-71
2022/09/25 02:59:40;;;;;;;6.57;1.92;;;;;;;8.99;94.71;101466.75;5033551;28;20200;-71
2022/09/25 03:02:07;;;;;;;;;;;;;;;9.02;93.64;101474.72;5014779;28;20052;-71
2022/09/25 03:04:35;;;;;;;3.63;2.00;;;;;;;8.92;93.86;101471.66;5014760;28;19914;-71
2022/09/25 03:07:01;;;;;;;9.07;2.05;;;;;;;8.87;93.27;101473.75;5010783;28;20038;-71
2022/09/25 03:09:31;;;;;;;6.95;3.00;;;;;;;8.82;93.31;101478.56;5012407;28;20477;-72
2022/09/25 03:11:56;;;;;;;6.43;1.90;;;;;;;8.75;93.32;101472.56;5030148;28;20531;-72
2022/09/25 03:14:22;;;;;;;4.32;2.08;;;;;;;8.72;93.94;101478.19;5027182;28;20204;-72
2022/09/25 03:16:50;;;;;;;12.90;2.60;;;;;;;8.70;93.72;101474.66;5026774;28;20044;-71
2022/09/25 03:19:18;;;;;;;9.10;2.38;;;;;;;8.67;94.02;101481.16;5016679;28;20033;-72
2022/09/25 03:21:44;;;;;;;7.45;2.15;;;;;;;8.62;94.55;101482.34;5028988;28;20093;-71
2022/09/25 03:24:10;;;;;;;6.55;1.95;;;;;;;8.57;94.17;101477.16;5029114;28;20025;-71
2022/09/25 03:26:35;;;;;;;4.55;2.25;;;;;;;8.56;94.38;101479.97;5021713;28;20028;-71
2022/09/25 03:29:01;;;;;;;5.85;2.45;;;;;;;8.54;95.04;101485.47;5018857;28;20041;-71
2022/09/25 03:31:28;;;;;;;6.38;2.28;;;;;;;8.52;94.91;101484.66;5029494;28;20045;-71
2022/09/25 03:33:54;;;;;;;5.65;3.25;;;;;;;8.49;94.81;101483.97;5029341;28;20056;-71
2022/09/25 03:36:24;;;;;;;4.43;2.17;;;;;;;8.49;94.80;101487.56;5029198;28;20080;-71
2022/09/25 03:38:51;;;;;;;6.15;2.65;;;;;;;8.44;95.18;101486.94;5024390;28;20069;-71
2022/09/25 03:41:20;;;;;;;10.48;2.90;;;;;;;8.40;95.41;101478.09;5011203;28;20076;-72
2022/09/25 03:43:48;;;;;;;6.43;2.83;;;;;;;8.39;95.24;101480.84;5021782;28;20503;-72
2022/09/25 03:46:14;;;;;;;5.55;2.38;;;;;;;8.37;95.55;101478.25;5029149;28;20022;-71
2022/09/25 03:48:40;;;;;;;4.72;2.47;;;;;;;8.35;95.56;101477.41;5029177;28;20034;-71
2022/09/25 03:51:06;;;;;;;9.02;2.90;;;;;;;8.33;95.50;101478.44;5030054;28;20033;-71
2022/09/25 03:53:32;;;;;;;10.90;3.28;;;;;;;8.30;96.03;101481.31;5024642;28;20030;-71
2022/09/25 03:56:06;;;;;;;8.65;3.40;;;;;;;8.29;96.11;101474.13;5029160;28;20045;-71
2022/09/25 03:58:32;;;;;;;8.35;3.03;;;;;;;8.27;96.24;101482.38;5025413;28;20099;-71
2022/09/25 04:00:57;;;;;;;3.90;2.67;;;;;;;8.22;95.28;101480.84;5023981;28;20041;-71
2022/09/25 04:03:27;;;;;;;5.55;2.60;;;;;;;8.16;95.89;101482.06;5009842;28;20419;-71
2022/09/25 04:05:54;;;;;;;4.75;2.65;;;;;;;8.12;95.90;101475.91;5009829;28;20121;-71
2022/09/25 04:08:21;;;;;;;5.35;3.00;;;;;;;8.09;95.58;101484.19;5016771;28;20017;-71
2022/09/25 04:10:47;;;;;;;6.75;3.03;;;;;;;8.07;95.49;101485.25;5028149;28;20488;-71
2022/09/25 04:13:13;;;;;;;4.07;2.80;;;;;;;8.03;95.31;101470.97;5028965;28;20047;-71
2022/09/25 04:15:40;;;;;;;6.55;2.83;;;;;;;8.02;95.75;101477.34;5027661;28;20029;-71
2022/09/25 04:18:06;;;;;;;8.23;3.90;;;;;;;8.03;96.42;101476.41;5026153;28;20133;-70
2022/09/25 04:20:32;;;;;;;6.28;3.75;;;;;;;8.00;96.43;101476.53;5010642;28;20492;-71
2022/09/25 04:22:57;;;;;;;7.35;3.50;;;;;;;8.04;96.39;101469.13;5010143;28;20056;-71
2022/09/25 04:25:26;;;;;;;9.07;4.70;;;;;;;8.03;96.95;101464.69;5012360;28;20376;-71
2022/09/25 04:27:55;;;;;;;8.57;4.30;;;;;;;8.03;96.62;101472.81;5005893;28;20037;-71
2022/09/25 04:30:28;;;;;;;9.85;4.80;;;;;;;8.01;96.72;101467.44;5028770;28;20025;-71
2022/09/25 04:35:38;;;;;;;8.23;4.13;;;;;;;7.93;96.18;101477.84;5028109;28;19928;-70
2022/09/25 04:38:03;;;;;;;10.52;3.90;;;;;;;7.88;96.15;101482.56;5025292;28;20029;-71
2022/09/25 04:40:29;;;;;;;7.50;3.97;;;;;;;7.85;95.93;101477.34;5012108;28;20061;-71
2022/09/25 04:42:56;;;;;;;11.23;5.00;;;;;;;7.84;97.12;101476.47;5015796;28;20037;-71
2022/09/25 04:45:22;;;;;;;9.40;4.78;;;;;;;7.84;96.84;101470.16;5045306;28;20075;-70
2022/09/25 04:47:47;;;;;;;9.30;4.97;;;;;;;7.82;96.63;101462.09;5032846;28;20072;-70
2022/09/25 04:50:13;;;;;;;14.13;5.40;;;;;;;7.85;96.79;101470.09;5031864;28;20543;-70
2022/09/25 04:52:38;;;;;;;10.73;5.68;;;;;;;7.80;96.92;101474.88;5031089;28;20507;-70
2022/09/25 04:55:04;;;;;;;13.43;5.50;;;;;;;7.76;96.73;101473.25;5032258;28;20076;-71
2022/09/25 04:57:30;;;;;;;40.70;6.78;;;;;;;7.71;96.63;101469.03;5042995;28;20120;-70
2022/09/25 04:59:55;;;;;;;8.48;4.75;;;;;;;7.68;97.13;101470.94;5030972;28;20120;-70
2022/09/25 05:02:26;;;;;;;11.43;6.07;;;;;;;7.68;97.62;101475.47;5035893;28;20116;-70
2022/09/25 05:04:52;;;;;;;9.25;5.57;;;;;;;7.66;97.04;101466.56;5020995;28;20038;-71
2022/09/25 05:07:17;;;;;;;10.98;5.07;;;;;;;7.63;96.85;101464.00;5013124;28;20472;-70
2022/09/25 05:09:42;;;;;;;9.30;6.13;;;;;;;7.64;97.36;101465.75;5014597;28;20128;-70
2022/09/25 05:12:08;;;;;;;12.10;5.50;;;;;;;7.60;97.10;101456.91;5027867;28;20484;-70
2022/09/25 05:14:33;;;;;;;11.02;5.38;;;;;;;7.61;97.24;101465.91;5028817;28;20037;-71
2022/09/25 05:17:00;;;;;;;12.95;4.85;;;;;;;7.58;96.52;101463.34;5031940;28;20037;-71
2022/09/25 05:19:26;;;;;;;7.88;4.55;;;;;;;7.56;96.18;101460.72;5031794;28;20328;-71
2022/09/25 05:21:52;;;;;;;16.08;5.13;;;;;;;7.52;95.63;101466.38;5031386;28;20128;-71
2022/09/25 05:24:17;;;;;;;9.18;4.18;;;;;;;7.46;95.71;101451.31;5031339;28;20117;-71
2022/09/25 05:26:43;;;;;;;17.27;5.88;;;;;;;7.44;96.69;101457.75;5030095;28;20719;-71
2022/09/25 05:29:09;;;;;;;9.82;6.63;;;;;;;7.42;97.11;101457.84;5030787;28;20116;-71
2022/09/25 05:31:35;;;;;;;9.63;5.22;;;;;;;7.41;96.85;101454.25;5016154;28;20103;-71
2022/09/25 05:34:01;;;;;;;10.30;6.35;;;;;;;7.44;96.95;101457.75;5012823;28;20444;-71
2022/09/25 05:36:27;;;;;;;12.85;6.63;;;;;;;7.44;97.27;101455.03;5016702;28;20048;-71
2022/09/25 05:38:53;;;;;;;13.25;6.57;;;;;;;7.46;97.27;101453.13;5011452;28;20026;-71
2022/09/25 05:41:18;;;;;;;13.27;7.13;;;;;;;7.44;97.79;101444.22;5012070;28;20184;-71
2022/09/25 05:43:49;;;;;;;16.48;7.45;;;;;;;7.51;97.93;101454.69;5012622;28;20128;-71
2022/09/25 05:46:15;;;;;;;13.73;7.03;;;;;;;7.52;98.31;101455.53;4997941;28;20489;-70
2022/09/25 05:48:40;;;;;;;15.88;8.60;;;;;;;7.58;98.68;101458.81;5014125;28;20072;-70
2022/09/25 05:51:05;;;;;;;11.43;7.10;;;;;;;7.57;98.44;101464.31;5031530;28;20437;-71
2022/09/25 05:53:31;;;;;;;11.48;6.80;;;;;;;7.56;97.59;101459.84;5026974;28;20133;-71
2022/09/25 05:55:59;;;;;;;16.42;6.65;;;;;;;7.53;97.46;101460.88;5022793;28;20441;-71
2022/09/25 05:58:26;;;;;;;15.07;7.05;;;;;;;7.53;97.28;101465.41;5025968;28;20713;-71
2022/09/25 06:00:51;;;;;;;14.35;5.82;;;;;;;7.54;96.57;101478.88;5028562;28;20026;-71
2022/09/25 06:03:16;;;;;;;12.95;6.20;;;;;;;7.54;96.38;101472.56;5023570;28;20052;-71
2022/09/25 06:05:45;;;;;;;12.82;6.65;;;;;;;7.53;96.44;101477.13;5026692;28;20034;-71
2022/09/25 06:08:12;;;;;;;10.77;6.50;;;;;;;7.50;96.64;101471.84;5028885;28;20044;-71
2022/09/25 06:10:38;;;;;;;14.02;6.55;;;;;;;7.50;96.52;101470.97;5028296;28;20057;-70
2022/09/25 06:13:04;;;;;;;11.13;5.88;;;;;;;7.52;97.26;101474.50;5032962;28;20029;-71
2022/09/25 06:15:38;;;;;;;13.75;7.40;;;;;;;7.52;97.37;101472.66;5006361;28;20381;-71
2022/09/25 06:18:04;;;;;;;16.02;6.85;;;;;;;7.51;97.41;101473.63;5046755;28;20033;-71
2022/09/25 06:20:29;;;;;;;10.63;5.38;;;;;;;7.56;97.87;101478.81;5017076;28;20048;-71
2022/09/25 06:22:56;;;;;;;17.70;6.63;;;;;;;7.58;97.67;101475.06;5030215;28;20017;-70
2022/09/25 06:25:24;;;;;;;10.30;5.97;;;;;;;7.61;97.48;101476.75;5044663;28;20472;-70
2022/09/25 06:27:54;;;;;;;13.70;6.55;;;;;;;7.70;99.04;101476.28;5025824;28;20033;-70
2022/09/25 06:30:20;;;;;;;11.20;6.25;;;;;;;7.72;97.96;101477.06;5031987;28;20042;-70
2022/09/25 06:32:46;;;;;;;14.73;6.80;;;;;;;7.77;98.28;101476.84;5026356;28;20418;-70
2022/09/25 06:35:12;;;;;;;14.07;6.90;;;;;;;7.78;98.26;101482.16;5020517;28;20053;-70
2022/09/25 06:37:37;;;;;;;11.32;6.13;;;;;;;7.83;98.61;101477.44;5033047;28;20060;-70
2022/09/25 06:40:03;;;;;;;12.68;6.40;;;;;;;7.85;98.77;101472.78;5027621;28;20394;-70
2022/09/25 06:42:28;;;;;;;11.90;6.25;;;;;;;7.87;98.57;101473.56;5028396;28;20029;-70
2022/09/25 06:44:53;;;;;;;12.40;6.65;;;;;;;7.92;98.19;101478.75;5024087;28;20077;-71
2022/09/25 06:47:20;;;;;;;10.77;6.30;;;;;;;7.90;98.24;101473.44;5027465;28;20396;-70
2022/09/25 06:49:45;;;;;;;11.55;6.85;;;;;;;7.97;98.37;101478.53;5024703;28;20378;-71
2022/09/25 06:52:11;;;;;;;12.32;6.18;;;;;;;8.01;98.48;101488.25;5029911;28;20079;-70
2022/09/25 06:54:36;;;;;;;11.77;5.97;;;;;;;8.04;98.98;101488.09;5022872;28;20044;-70
2022/09/25 06:57:02;;;;;;;11.10;6.15;;;;;;;8.08;98.84;101490.59;5027529;28;20079;-70
2022/09/25 06:59:27;;;;;;;12.20;7.05;;;;;;;8.17;99.72;101490.09;5026289;28;20036;-71
2022/09/25 07:01:53;;;;;;;17.25;6.88;;;;;;;8.21;99.86;101485.41;5027300;28;20555;-71
2022/09/25 07:04:18;;;;;;;15.05;6.93;;;;;;;8.25;99.68;101486.09;4994956;28;1086179;-70
2022/09/25 07:06:44;;;;;;;11.80;6.72;;;;;;;8.28;99.70;101494.94;5029672;28;20046;-71
2022/09/25 07:09:10;;;;;;;14.25;7.18;;;;;;;8.31;99.73;101491.22;5027761;28;20503;-70
2022/09/25 07:11:35;;;;;;;13.15;7.85;;;;;;;8.40;100.00;101491.63;5030573;28;20071;-71
2022/09/25 07:14:00;;;;;;;20.55;6.80;;;;;;;8.48;100.00;101495.75;5008134;28;20440;-71
2022/09/25 07:16:28;;;;;;;12.75;6.80;;;;;;;8.53;100.00;101493.69;5020289;28;20369;-71
2022/09/25 07:18:59;;;;;;;14.43;7.40;;;;;;;8.61;100.00;101492.31;5046736;28;20053;-71
2022/09/25 07:21:26;;;;;;;16.83;7.65;;;;;;;8.68;100.00;101493.75;5021080;28;20119;-71
2022/09/25 07:23:52;;;;;;;14.55;6.68;;;;;;;8.76;100.00;101497.88;5028318;28;20029;-71
2022/09/25 07:26:23;;;;;;;17.08;6.90;;;;;;;8.82;100.00;101498.44;5022759;28;20463;-71
2022/09/25 07:28:59;;;;;;;11.32;6.22;;;;;;;8.91;100.00;101500.63;5024968;28;20045;-71
2022/09/25 07:31:27;;;;;;;10.07;6.35;;;;;;;9.02;100.00;101505.47;5020833;28;20568;-71
2022/09/25 07:33:53;;;;;;;11.57;6.72;;;;;;;9.09;100.00;101498.75;5022921;28;20080;-71
2022/09/25 07:36:19;;;;;;;17.83;7.03;;;;;;;9.18;100.00;101502.75;5023920;28;20151;-71
2022/09/25 07:38:49;;;;;;;11.95;6.53;;;;;;;9.29;100.00;101513.03;5024462;28;20025;-71
2022/09/25 07:41:15;;;;;;;12.75;6.47;;;;;;;9.34;100.00;101497.34;5026765;28;20049;-71
2022/09/25 07:43:42;;;;;;;19.00;6.15;;;;;;;9.39;100.00;101496.13;5028345;28;20037;-71
2022/09/25 07:46:07;;;;;;;12.70;5.28;;;;;;;9.47;100.00;101500.25;5022639;28;20048;-70
2022/09/25 07:48:33;;;;;;;14.18;5.65;;;;;;;9.57;100.00;101501.47;5027816;28;20542;-71
2022/09/25 07:51:04;;;;;;;10.82;5.20;;;;;;;9.70;100.00;101497.09;5022643;28;20029;-71
2022/09/25 07:53:30;;;;;;;8.30;4.85;;;;;;;9.79;100.00;101492.91;5025707;28;20060;-71
2022/09/25 07:55:59;;;;;;;12.30;4.70;;;;;;;9.87;100.00;101493.34;5042648;28;20030;-71
2022/09/25 07:58:25;;;;;;;8.95;4.18;;;;;;;9.96;100.00;101495.53;5024245;28;20049;-70
2022/09/25 08:00:53;;;;;;;13.35;5.47;;;;;;;10.05;100.00;101499.53;5022131;28;20836;-71
2022/09/25 08:03:18;;;;;;;10.10;4.13;;;;;;;10.15;100.00;101493.44;5028236;28;20053;-71
2022/09/25 08:05:44;;;;;;;6.13;3.60;;;;;;;10.34;100.00;101485.09;5027980;28;20384;-70
2022/09/25 08:08:09;;;;;;;7.97;3.53;;;;;;;10.53;99.46;101498.44;5027829;28;20104;-70
2022/09/25 08:10:34;;;;;;;7.45;3.08;;;;;;;10.66;99.04;101496.69;5027327;28;20534;-71
2022/09/25 08:13:00;;;;;;;7.60;3.13;;;;;;;10.77;98.16;101493.31;5029650;28;20021;-70
2022/09/25 08:15:25;;;;;;;6.03;3.00;;;;;;;10.86;98.36;101491.84;5047523;28;20049;-71
2022/09/25 08:17:51;;;;;;;5.80;3.10;;;;;;;10.97;97.45;101492.94;5031896;28;20036;-71
2022/09/25 08:20:16;;;;;;;11.23;3.83;;;;;;;11.09;96.78;101485.81;5031202;28;20575;-71
2022/09/25 08:22:42;;;;;;;6.43;2.42;;;;;;;11.21;95.17;101481.44;5045568;28;20605;-71
2022/09/25 08:25:07;;;;;;;4.82;2.13;;;;;;;11.28;94.59;101487.34;5024562;28;20029;-71
2022/09/25 08:27:39;;;;;;;9.55;2.95;;;;;;;11.32;94.95;101483.44;5027223;28;20045;-71
2022/09/25 08:30:07;;;;;;;10.57;2.95;;;;;;;11.39;93.23;101482.09;5024429;28;20045;-71
2022/09/25 08:32:33;;;;;;;8.93;2.13;;;;;;;11.46;93.95;101483.41;5024166;28;20125;-71
2022/09/25 08:35:00;;;;;;;4.65;2.83;;;;;;;11.51;93.50;101489.44;5022155;28;20118;-71
2022/09/25 08:37:25;;;;;;;10.48;2.47;;;;;;;11.59;92.53;101491.66;5040724;28;20033;-71
2022/09/25 08:39:50;;;;;;;7.93;3.22;;;;;;;11.66;92.05;101498.47;5017280;28;20115;-71
2022/09/25 08:42:35;;;;;;;6.50;2.00;;;;;;;11.75;90.80;101498.72;5020770;28;20034;-72
2022/09/25 08:50:36;;;;;;;6.82;2.58;;;;;;;11.94;91.89;101492.06;5025605;28;20120;-71
2022/09/25 08:53:07;;;;;;;3.95;2.15;;;;;;;12.01;89.94;101504.28;5025749;28;20041;-72
2022/09/25 08:58:30;;;;;;;6.13;2.70;;;;;;;12.15;89.01;101503.34;5028833;28;20034;-71
2022/09/25 09:01:01;;;;;;;8.95;1.90;;;;;;;12.17;90.06;101502.28;5018081;28;20500;-72
2022/09/25 09:03:29;;;;;;;6.45;2.20;;;;;;;12.17;90.13;101496.81;5028350;28;20072;-71
2022/09/25 09:06:10;;;;;;;9.48;2.35;;;;;;;12.25;91.90;101499.00;5029163;28;20048;-71
2022/09/25 09:08:38;;;;;;;8.82;1.88;;;;;;;12.30;88.48;101495.94;5029893;28;20124;-71
2022/09/25 09:11:17;;;;;;;5.72;1.92;;;;;;;12.33;89.96;101491.16;5033703;28;20079;-71
2022/09/25 09:13:54;;;;;;;11.00;2.00;;;;;;;12.39;88.35;101493.47;5014563;28;20397;-72
2022/09/25 09:16:25;;;;;;;4.88;1.52;;;;;;;12.48;88.44;101486.47;5028684;28;20075;-72
2022/09/25 09:18:52;;;;;;;3.20;1.52;;;;;;;12.60;86.67;101490.22;5029708;28;20029;-72
2022/09/25 09:21:31;;;;;;;4.50;1.45;;;;;;;12.70;86.34;101481.25;5029736;28;20041;-72
2022/09/25 09:24:30;;;;;;;11.43;2.03;;;;;;;12.77;86.39;101473.50;5021428;28;20033;-72
2022/09/25 09:27:23;;;;;;;7.10;2.03;;;;;;;12.84;86.82;101485.75;5029892;28;20077;-72
2022/09/25 09:30:16;;;;;;;7.03;1.35;;;;;;;12.91;84.70;101486.16;5030851;28;20038;-71
2022/09/25 09:33:07;;;;;;;6.82;1.52;;;;;;;13.03;82.92;101483.41;5041897;28;20088;-72
2022/09/25 09:36:04;;;;;;;8.18;1.25;;;;;;;13.15;82.58;101478.03;5043606;28;20480;-72
2022/09/25 09:38:56;;;;;;;4.60;1.48;;;;;;;13.21;82.28;101480.34;5039257;28;20056;-73
2022/09/25 09:41:40;;;;;;;2.85;0.80;;;;;;;13.23;80.18;101481.13;5035358;28;20036;-72
2022/09/25 09:44:20;;;;;;;6.60;1.58;;;;;;;13.38;78.86;101473.66;5032466;28;20487;-71
2022/09/25 09:47:05;;;;;;;2.80;0.80;;;;;;;13.50;77.06;101472.75;5026036;28;20037;-72
2022/09/25 09:49:44;;;;;;;4.32;1.45;;;;;;;13.70;77.22;101469.38;5029719;28;20039;-72
2022/09/25 09:52:20;;;;;;;3.72;1.10;;;;;;;13.96;80.38;101467.41;5027083;28;20029;-72
2022/09/25 09:54:53;;;;;;;8.48;1.33;;;;;;;14.09;76.51;101475.53;5026818;28;20694;-72
2022/09/25 09:57:26;;;;;;;4.78;1.10;;;;;;;14.23;74.39;101456.19;5028595;28;20037;-71
2022/09/25 09:59:59;;;;;;;8.07;1.73;;;;;;;14.37;73.74;101467.91;5027820;28;20045;-72
2022/09/25 10:02:36;;;;;;;3.13;1.02;;;;;;;14.42;74.41;101461.09;5028646;28;20068;-72
2022/09/25 10:05:08;;;;;;;4.88;0.85;;;;;;;14.53;73.44;101463.00;5027464;28;20061;-71
2022/09/25 10:07:37;;;;;;;4.90;1.30;;;;;;;14.72;70.70;101459.66;5043356;28;20037;-73
2022/09/25 10:10:12;;;;;;;3.42;1.00;;;;;;;15.06;71.30;101457.78;5027009;28;20057;-72
2022/09/25 10:12:38;;;;;;;2.47;0.80;;;;;;;15.27;68.82;101461.53;5027960;28;20041;-70
2022/09/25 10:15:14;;;;;;;7.03;1.10;;;;;;;15.40;66.48;101455.03;5029030;28;20490;-72
2022/09/25 10:17:40;;;;;;;2.30;0.60;;;;;;;15.39;66.70;101456.03;5028449;28;20044;-71
2022/09/25 10:20:16;;;;;;;4.65;1.15;;;;;;;15.45;67.63;101447.31;5028874;28;20087;-71
2022/09/25 10:22:45;;;;;;;2.45;0.80;;;;;;;15.75;70.22;101457.59;5028918;28;20361;-71
2022/09/25 10:25:11;;;;;;;6.20;1.00;;;;;;;16.10;68.75;101448.25;5028725;28;20049;-71
2022/09/25 10:27:44;;;;;;;2.63;0.95;;;;;;;16.32;64.61;101456.38;5030166;28;20025;-71
2022/09/25 10:30:10;;;;;;;4.43;0.90;;;;;;;16.71;67.53;101451.13;5021810;28;20056;-72
2022/09/25 10:33:02;;;;;;;1.95;0.88;;;;;;;16.96;68.38;101452.56;5032831;28;20476;-71
2022/09/25 10:35:36;;;;;;;2.10;0.60;;;;;;;17.09;68.05;101445.81;5028140;28;20131;-72
2022/09/25 10:38:03;;;;;;;3.95;0.90;;;;;;;17.48;67.19;101445.06;5025698;28;20308;-71
2022/09/25 10:40:34;;;;;;;4.95;0.90;;;;;;;17.70;65.67;101447.56;5019916;28;20041;-72
2022/09/25 10:43:15;;;;;;;3.72;0.90;;;;;;;17.74;62.37;101449.06;5028707;28;20099;-72
2022/09/25 10:45:41;;;;;;;5.35;1.00;;;;;;;17.75;57.15;101448.03;5023901;28;20037;-72
2022/09/25 10:51:10;;;;;;;4.13;1.00;;;;;;;17.88;56.16;101447.78;5026551;28;20065;-71
2022/09/25 10:53:36;;;;;;;5.95;0.90;;;;;;;17.59;55.09;101445.84;5027835;28;20029;-72
2022/09/25 10:56:11;;;;;;;4.43;0.90;;;;;;;17.32;56.23;101440.13;5027734;28;20390;-72
2022/09/25 10:58:41;;;;;;;2.88;0.88;;;;;;;17.39;62.17;101441.28;5026213;28;20114;-72
2022/09/25 11:01:12;;;;;;;2.25;0.90;;;;;;;17.63;56.10;101440.06;5027896;28;20384;-71
2022/09/25 11:03:46;;;;;;;2.00;0.80;;;;;;;17.91;58.90;101433.75;5028166;28;20060;-72
2022/09/25 11:06:26;;;;;;;5.93;0.90;;;;;;;18.19;57.57;101439.38;5023927;28;20511;-71
2022/09/25 11:09:24;;;;;;;3.30;0.63;;;;;;;18.13;58.77;101442.69;5028036;28;20090;-71
2022/09/25 11:11:52;;;;;;;3.47;0.80;;;;;;;17.96;57.11;101441.56;5027714;28;20053;-72
2022/09/25 11:14:22;;;;;;;5.50;0.70;;;;;;;17.71;57.08;101446.56;5021315;28;20641;-72
2022/09/25 11:16:53;;;;;;;2.05;0.77;;;;;;;17.45;59.90;101449.00;5025093;28;20030;-72
2022/09/25 11:19:35;;;;;;;2.50;0.90;;;;;;;17.34;59.55;101446.34;5027755;28;20037;-71
2022/09/25 11:22:16;;;;;;;4.87;0.90;;;;;;;17.12;59.51;101443.81;5028461;28;20043;-72
2022/09/25 11:25:00;;;;;;;4.20;0.90;;;;;;;16.84;58.67;101438.06;5027292;28;20312;-72
2022/09/25 11:27:39;;;;;;;4.78;0.90;;;;;;;16.57;62.36;101442.22;5028332;28;20370;-72
2022/09/25 11:30:15;;;;;;;3.92;1.00;;;;;;;16.58;63.61;101434.84;5025571;28;20063;-72
2022/09/25 11:33:03;;;;;;;3.17;1.00;;;;;;;16.87;62.45;101425.91;5028040;28;20091;-72
2022/09/25 11:36:02;;;;;;;2.90;1.08;;;;;;;17.18;60.27;101433.13;5027725;28;20059;-73
2022/09/25 11:41:58;;;;;;;5.97;0.70;;;;;;;17.70;58.45;101425.56;5027397;28;20045;-72
2022/09/25 11:44:35;;;;;;;3.38;0.80;;;;;;;18.21;59.90;101416.16;5018020;28;20508;-73
2022/09/25 11:47:16;;;;;;;3.33;0.82;;;;;;;18.79;60.51;101412.44;5026595;28;20045;-73
2022/09/25 11:49:42;;;;;;;2.55;0.70;;;;;;;19.25;55.15;101416.16;5027881;28;20492;-73
2022/09/25 11:52:25;;;;;;;2.53;0.80;;;;;;;19.46;55.10;101410.38;5027648;28;20048;-72
2022/09/25 11:55:13;;;;;;;1.55;0.70;;;;;;;19.33;53.99;101408.84;5026461;28;20063;-73
2022/09/25 11:57:54;;;;;;;2.72;0.98;;;;;;;19.74;56.38;101398.28;5027172;28;20029;-73
2022/09/25 12:00:25;;;;;;;2.83;0.65;;;;;;;20.14;55.75;101399.66;5020946;28;20045;-74
2022/09/25 12:03:15;;;;;;;5.30;1.00;;;;;;;19.69;48.96;101408.06;5036156;28;20106;-73